sensor_id;sensor_type;location;lat;lon;timestamp;P1;durP1;ratioP1;P2;durP2;ratioP2
43620;SDS011;29213;50.770;7.298;2023-04-30T06:51:51;15.38;;;12.70;;
43620;SDS011;29213;50.770;7.298;2023-04-30T06:54:17;13.95;;;12.13;;
43620;SDS011;29213;50.770;7.298;2023-04-30T06:56:42;13.98;;;11.88;;
43620;SDS011;29213;50.770;7.298;2023-04-30T06:59:09;16.05;;;13.27;;
43620;SDS011;29213;50.770;7.298;2023-04-30T07:01:34;14.85;;;12.30;;
43620;SDS011;29213;50.770;7.298;2023-04-30T07:04:00;15.07;;;12.38;;
43620;SDS011;29213;50.770;7.298;2023-04-30T07:06:25;16.10;;;13.55;;
43620;SDS011;29213;50.770;7.298;2023-04-30T07:08:51;16.83;;;13.15;;
43620;SDS011;29213;50.770;7.298;2023-04-30T07:11:16;14.85;;;12.43;;
43620;SDS011;29213;50.770;7.298;2023-04-30T07:13:41;14.07;;;12.45;;
43620;SDS011;29213;50.770;7.298;2023-04-30T07:16:07;15.98;;;12.70;;
43620;SDS011;29213;50.770;7.298;2023-04-30T07:18:34;16.55;;;12.18;;
43620;SDS011;29213;50.770;7.298;2023-04-30T07:21:00;14.20;;;11.65;;
43620;SDS011;29213;50.770;7.298;2023-04-30T07:23:25;12.90;;;11.20;;
43620;SDS011;29213;50.770;7.298;2023-04-30T07:25:50;14.02;;;11.55;;
43620;SDS011;29213;50.770;7.298;2023-04-30T07:28:16;14.13;;;10.60;;
43620;SDS011;29213;50.770;7.298;2023-04-30T07:30:41;14.10;;;11.18;;
43620;SDS011;29213;50.770;7.298;2023-04-30T07:33:06;10.52;;;9.07;;
43620;SDS011;29213;50.770;7.298;2023-04-30T07:35:32;12.77;;;9.77;;
43620;SDS011;29213;50.770;7.298;2023-04-30T07:37:58;12.70;;;10.10;;
43620;SDS011;29213;50.770;7.298;2023-04-30T07:40:23;11.05;;;9.77;;
43620;SDS011;29213;50.770;7.298;2023-04-30T07:42:49;10.50;;;9.40;;
43620;SDS011;29213;50.770;7.298;2023-04-30T07:45:14;10.95;;;8.90;;
43620;SDS011;29213;50.770;7.298;2023-04-30T07:47:40;11.50;;;8.18;;
43620;SDS011;29213;50.770;7.298;2023-04-30T07:50:05;9.38;;;7.85;;
43620;SDS011;29213;50.770;7.298;2023-04-30T07:52:31;11.35;;;8.43;;
43620;SDS011;29213;50.770;7.298;2023-04-30T07:54:56;9.77;;;7.78;;
43620;SDS011;29213;50.770;7.298;2023-04-30T07:57:22;10.75;;;7.13;;
43620;SDS011;29213;50.770;7.298;2023-04-30T07:59:47;10.60;;;7.53;;
43620;SDS011;29213;50.770;7.298;2023-04-30T08:02:12;10.93;;;8.02;;
43620;SDS011;29213;50.770;7.298;2023-04-30T08:04:38;9.85;;;7.60;;
43620;SDS011;29213;50.770;7.298;2023-04-30T08:07:03;10.80;;;8.18;;
43620;SDS011;29213;50.770;7.298;2023-04-30T08:09:29;9.57;;;7.53;;
43620;SDS011;29213;50.770;7.298;2023-04-30T08:11:55;7.32;;;6.15;;
43620;SDS011;29213;50.770;7.298;2023-04-30T08:14:20;6.82;;;5.75;;
43620;SDS011;29213;50.770;7.298;2023-04-30T08:16:46;8.45;;;6.65;;
43620;SDS011;29213;50.770;7.298;2023-04-30T08:19:11;7.68;;;6.65;;
43620;SDS011;29213;50.770;7.298;2023-04-30T08:21:36;7.72;;;5.78;;
43620;SDS011;29213;50.770;7.298;2023-04-30T08:24:02;10.27;;;6.30;;
43620;SDS011;29213;50.770;7.298;2023-04-30T08:26:28;8.32;;;6.40;;
43620;SDS011;29213;50.770;7.298;2023-04-30T08:28:53;7.30;;;5.43;;
43620;SDS011;29213;50.770;7.298;2023-04-30T08:31:18;7.15;;;5.13;;
43620;SDS011;29213;50.770;7.298;2023-04-30T08:33:44;7.38;;;4.43;;
43620;SDS011;29213;50.770;7.298;2023-04-30T08:36:09;6.75;;;4.95;;
43620;SDS011;29213;50.770;7.298;2023-04-30T08:38:35;6.32;;;5.07;;
43620;SDS011;29213;50.770;7.298;2023-04-30T08:41:04;6.25;;;4.43;;
43620;SDS011;29213;50.770;7.298;2023-04-30T08:43:37;5.97;;;4.35;;
43620;SDS011;29213;50.770;7.298;2023-04-30T08:46:02;6.35;;;3.50;;
43620;SDS011;29213;50.770;7.298;2023-04-30T08:48:29;5.78;;;4.22;;
43620;SDS011;29213;50.770;7.298;2023-04-30T08:50:57;5.53;;;3.63;;
43620;SDS011;29213;50.770;7.298;2023-04-30T08:53:23;5.30;;;3.60;;
43620;SDS011;29213;50.770;7.298;2023-04-30T08:55:49;4.88;;;3.38;;
43620;SDS011;29213;50.770;7.298;2023-04-30T08:58:14;3.90;;;2.53;;
43620;SDS011;29213;50.770;7.298;2023-04-30T09:00:40;4.75;;;2.58;;
43620;SDS011;29213;50.770;7.298;2023-04-30T09:03:06;3.95;;;1.67;;
43620;SDS011;29213;50.770;7.298;2023-04-30T09:05:32;4.28;;;2.10;;
43620;SDS011;29213;50.770;7.298;2023-04-30T09:07:57;4.07;;;2.00;;
43620;SDS011;29213;50.770;7.298;2023-04-30T09:10:23;2.92;;;1.60;;
43620;SDS011;29213;50.770;7.298;2023-04-30T09:13:02;2.80;;;1.50;;
43620;SDS011;29213;50.770;7.298;2023-04-30T09:15:28;2.55;;;1.20;;
43620;SDS011;29213;50.770;7.298;2023-04-30T09:18:04;3.78;;;1.63;;
43620;SDS011;29213;50.770;7.298;2023-04-30T09:20:37;2.67;;;1.33;;
43620;SDS011;29213;50.770;7.298;2023-04-30T09:23:23;2.05;;;1.00;;
43620;SDS011;29213;50.770;7.298;2023-04-30T09:25:49;3.20;;;1.45;;
43620;SDS011;29213;50.770;7.298;2023-04-30T09:28:14;2.60;;;1.38;;
43620;SDS011;29213;50.770;7.298;2023-04-30T09:30:40;2.58;;;1.30;;
43620;SDS011;29213;50.770;7.298;2023-04-30T09:33:06;2.25;;;1.05;;
43620;SDS011;29213;50.770;7.298;2023-04-30T09:35:33;2.80;;;1.20;;
43620;SDS011;29213;50.770;7.298;2023-04-30T09:38:00;2.22;;;1.10;;
43620;SDS011;29213;50.770;7.298;2023-04-30T09:40:41;2.13;;;1.00;;
43620;SDS011;29213;50.770;7.298;2023-04-30T09:43:07;2.15;;;1.00;;
43620;SDS011;29213;50.770;7.298;2023-04-30T09:45:43;3.60;;;1.20;;
43620;SDS011;29213;50.770;7.298;2023-04-30T09:48:14;1.70;;;0.85;;
43620;SDS011;29213;50.770;7.298;2023-04-30T09:50:40;1.95;;;0.98;;
43620;SDS011;29213;50.770;7.298;2023-04-30T09:53:09;1.25;;;0.80;;
43620;SDS011;29213;50.770;7.298;2023-04-30T09:55:43;1.90;;;0.80;;
43620;SDS011;29213;50.770;7.298;2023-04-30T09:58:13;1.77;;;0.90;;
43620;SDS011;29213;50.770;7.298;2023-04-30T10:00:39;1.92;;;0.90;;
43620;SDS011;29213;50.770;7.298;2023-04-30T10:03:07;1.83;;;0.90;;
43620;SDS011;29213;50.770;7.298;2023-04-30T10:05:44;2.33;;;0.82;;
43620;SDS011;29213;50.770;7.298;2023-04-30T10:10:55;1.23;;;0.68;;
43620;SDS011;29213;50.770;7.298;2023-04-30T10:13:28;1.50;;;0.60;;
43620;SDS011;29213;50.770;7.298;2023-04-30T10:15:57;0.95;;;0.50;;
43620;SDS011;29213;50.770;7.298;2023-04-30T10:20:52;1.33;;;0.80;;
43620;SDS011;29213;50.770;7.298;2023-04-30T10:23:20;2.10;;;0.80;;
43620;SDS011;29213;50.770;7.298;2023-04-30T10:25:46;1.77;;;0.80;;
43620;SDS011;29213;50.770;7.298;2023-04-30T10:28:12;1.58;;;0.80;;
43620;SDS011;29213;50.770;7.298;2023-04-30T10:30:38;2.40;;;0.90;;
43620;SDS011;29213;50.770;7.298;2023-04-30T10:38:20;1.35;;;0.73;;
43620;SDS011;29213;50.770;7.298;2023-04-30T10:40:49;3.05;;;0.85;;
43620;SDS011;29213;50.770;7.298;2023-04-30T10:43:16;3.22;;;0.80;;
43620;SDS011;29213;50.770;7.298;2023-04-30T10:45:43;1.65;;;0.70;;
43620;SDS011;29213;50.770;7.298;2023-04-30T10:48:09;1.92;;;0.75;;
43620;SDS011;29213;50.770;7.298;2023-04-30T10:50:39;1.83;;;0.70;;
43620;SDS011;29213;50.770;7.298;2023-04-30T10:53:06;1.33;;;0.60;;
43620;SDS011;29213;50.770;7.298;2023-04-30T10:55:31;1.55;;;0.70;;
43620;SDS011;29213;50.770;7.298;2023-04-30T10:57:58;1.40;;;0.70;;
43620;SDS011;29213;50.770;7.298;2023-04-30T11:00:24;1.30;;;0.70;;
43620;SDS011;29213;50.770;7.298;2023-04-30T11:02:54;0.90;;;0.60;;
43620;SDS011;29213;50.770;7.298;2023-04-30T11:05:32;1.38;;;0.60;;
43620;SDS011;29213;50.770;7.298;2023-04-30T11:07:59;1.42;;;0.65;;
43620;SDS011;29213;50.770;7.298;2023-04-30T11:10:25;0.88;;;0.55;;
43620;SDS011;29213;50.770;7.298;2023-04-30T11:12:55;0.70;;;0.50;;
43620;SDS011;29213;50.770;7.298;2023-04-30T11:15:24;1.67;;;0.70;;
43620;SDS011;29213;50.770;7.298;2023-04-30T11:17:50;1.42;;;0.60;;
43620;SDS011;29213;50.770;7.298;2023-04-30T11:20:22;0.80;;;0.60;;
43620;SDS011;29213;50.770;7.298;2023-04-30T11:23:06;1.02;;;0.60;;
43620;SDS011;29213;50.770;7.298;2023-04-30T11:25:54;0.82;;;0.55;;
43620;SDS011;29213;50.770;7.298;2023-04-30T11:28:23;1.08;;;0.60;;
43620;SDS011;29213;50.770;7.298;2023-04-30T11:30:56;1.38;;;0.50;;
43620;SDS011;29213;50.770;7.298;2023-04-30T11:33:23;0.88;;;0.60;;
43620;SDS011;29213;50.770;7.298;2023-04-30T11:35:50;2.03;;;0.52;;
43620;SDS011;29213;50.770;7.298;2023-04-30T11:38:27;1.70;;;0.80;;
43620;SDS011;29213;50.770;7.298;2023-04-30T11:40:57;0.95;;;0.60;;
43620;SDS011;29213;50.770;7.298;2023-04-30T11:43:25;0.68;;;0.40;;
43620;SDS011;29213;50.770;7.298;2023-04-30T11:45:59;2.05;;;0.70;;
43620;SDS011;29213;50.770;7.298;2023-04-30T11:48:29;1.73;;;0.75;;
43620;SDS011;29213;50.770;7.298;2023-04-30T11:50:55;1.35;;;0.50;;
43620;SDS011;29213;50.770;7.298;2023-04-30T11:53:25;1.30;;;0.70;;
43620;SDS011;29213;50.770;7.298;2023-04-30T11:55:52;2.70;;;0.88;;
43620;SDS011;29213;50.770;7.298;2023-04-30T11:58:19;2.13;;;0.98;;
43620;SDS011;29213;50.770;7.298;2023-04-30T12:00:46;1.63;;;0.85;;
43620;SDS011;29213;50.770;7.298;2023-04-30T12:03:13;1.40;;;0.65;;
43620;SDS011;29213;50.770;7.298;2023-04-30T12:05:39;1.42;;;0.73;;
43620;SDS011;29213;50.770;7.298;2023-04-30T12:08:06;3.70;;;1.88;;
43620;SDS011;29213;50.770;7.298;2023-04-30T12:10:33;1.20;;;0.80;;
43620;SDS011;29213;50.770;7.298;2023-04-30T12:12:59;1.73;;;0.82;;
43620;SDS011;29213;50.770;7.298;2023-04-30T12:15:25;1.60;;;0.70;;
43620;SDS011;29213;50.770;7.298;2023-04-30T12:17:52;2.35;;;1.10;;
43620;SDS011;29213;50.770;7.298;2023-04-30T12:20:19;4.18;;;2.47;;
43620;SDS011;29213;50.770;7.298;2023-04-30T12:22:47;8.02;;;6.07;;
43620;SDS011;29213;50.770;7.298;2023-04-30T12:25:14;6.05;;;4.05;;
43620;SDS011;29213;50.770;7.298;2023-04-30T12:27:44;4.53;;;2.55;;
43620;SDS011;29213;50.770;7.298;2023-04-30T12:30:10;3.03;;;1.30;;
43620;SDS011;29213;50.770;7.298;2023-04-30T12:32:38;2.88;;;0.85;;
43620;SDS011;29213;50.770;7.298;2023-04-30T12:35:05;2.17;;;1.10;;
43620;SDS011;29213;50.770;7.298;2023-04-30T12:37:31;2.60;;;1.08;;
43620;SDS011;29213;50.770;7.298;2023-04-30T12:39:57;2.53;;;1.10;;
43620;SDS011;29213;50.770;7.298;2023-04-30T12:42:23;1.98;;;0.80;;
43620;SDS011;29213;50.770;7.298;2023-04-30T12:44:49;1.95;;;0.70;;
43620;SDS011;29213;50.770;7.298;2023-04-30T12:47:14;1.45;;;0.80;;
43620;SDS011;29213;50.770;7.298;2023-04-30T12:49:40;2.05;;;0.90;;
43620;SDS011;29213;50.770;7.298;2023-04-30T12:52:09;1.63;;;0.80;;
43620;SDS011;29213;50.770;7.298;2023-04-30T12:54:36;1.15;;;0.65;;
43620;SDS011;29213;50.770;7.298;2023-04-30T12:57:03;1.65;;;0.80;;
43620;SDS011;29213;50.770;7.298;2023-04-30T12:59:35;2.28;;;0.80;;
43620;SDS011;29213;50.770;7.298;2023-04-30T13:02:06;1.50;;;0.70;;
43620;SDS011;29213;50.770;7.298;2023-04-30T13:04:33;1.08;;;0.63;;
43620;SDS011;29213;50.770;7.298;2023-04-30T13:07:00;1.13;;;0.60;;
43620;SDS011;29213;50.770;7.298;2023-04-30T13:09:25;1.08;;;0.60;;
43620;SDS011;29213;50.770;7.298;2023-04-30T13:11:51;1.65;;;0.70;;
43620;SDS011;29213;50.770;7.298;2023-04-30T13:14:16;1.33;;;0.77;;
43620;SDS011;29213;50.770;7.298;2023-04-30T13:16:42;0.80;;;0.50;;
43620;SDS011;29213;50.770;7.298;2023-04-30T13:19:08;0.88;;;0.55;;
43620;SDS011;29213;50.770;7.298;2023-04-30T13:21:33;1.20;;;0.50;;
43620;SDS011;29213;50.770;7.298;2023-04-30T13:23:59;1.17;;;0.60;;
43620;SDS011;29213;50.770;7.298;2023-04-30T13:26:24;1.10;;;0.60;;
43620;SDS011;29213;50.770;7.298;2023-04-30T13:28:50;1.25;;;0.60;;
43620;SDS011;29213;50.770;7.298;2023-04-30T13:31:15;1.27;;;0.57;;
43620;SDS011;29213;50.770;7.298;2023-04-30T13:33:41;1.10;;;0.60;;
43620;SDS011;29213;50.770;7.298;2023-04-30T13:36:06;0.93;;;0.60;;
43620;SDS011;29213;50.770;7.298;2023-04-30T13:38:32;2.00;;;1.20;;
43620;SDS011;29213;50.770;7.298;2023-04-30T13:40:57;2.15;;;1.20;;
43620;SDS011;29213;50.770;7.298;2023-04-30T13:43:22;1.45;;;0.80;;
43620;SDS011;29213;50.770;7.298;2023-04-30T13:45:49;1.90;;;0.90;;
43620;SDS011;29213;50.770;7.298;2023-04-30T13:48:15;1.42;;;0.60;;
43620;SDS011;29213;50.770;7.298;2023-04-30T13:50:40;1.38;;;0.80;;
43620;SDS011;29213;50.770;7.298;2023-04-30T13:53:06;1.48;;;0.75;;
43620;SDS011;29213;50.770;7.298;2023-04-30T13:55:31;0.93;;;0.60;;
43620;SDS011;29213;50.770;7.298;2023-04-30T13:57:57;0.73;;;0.40;;
43620;SDS011;29213;50.770;7.298;2023-04-30T14:00:22;1.63;;;0.80;;
43620;SDS011;29213;50.770;7.298;2023-04-30T14:02:48;1.30;;;0.60;;
43620;SDS011;29213;50.770;7.298;2023-04-30T14:05:13;1.08;;;0.60;;
43620;SDS011;29213;50.770;7.298;2023-04-30T14:07:40;2.22;;;0.70;;
43620;SDS011;29213;50.770;7.298;2023-04-30T14:10:06;1.27;;;0.70;;
43620;SDS011;29213;50.770;7.298;2023-04-30T14:12:31;1.15;;;0.65;;
43620;SDS011;29213;50.770;7.298;2023-04-30T14:14:57;3.05;;;1.00;;
43620;SDS011;29213;50.770;7.298;2023-04-30T14:17:23;1.45;;;0.60;;
43620;SDS011;29213;50.770;7.298;2023-04-30T14:19:49;2.05;;;0.80;;
43620;SDS011;29213;50.770;7.298;2023-04-30T14:22:14;0.93;;;0.60;;
43620;SDS011;29213;50.770;7.298;2023-04-30T14:24:40;1.00;;;0.50;;
43620;SDS011;29213;50.770;7.298;2023-04-30T14:27:06;0.65;;;0.50;;
43620;SDS011;29213;50.770;7.298;2023-04-30T14:29:31;1.65;;;0.65;;
43620;SDS011;29213;50.770;7.298;2023-04-30T14:31:56;0.90;;;0.50;;
43620;SDS011;29213;50.770;7.298;2023-04-30T14:34:22;1.52;;;0.50;;
43620;SDS011;29213;50.770;7.298;2023-04-30T14:36:48;0.85;;;0.55;;
43620;SDS011;29213;50.770;7.298;2023-04-30T14:39:14;0.60;;;0.40;;
43620;SDS011;29213;50.770;7.298;2023-04-30T14:41:39;1.30;;;0.60;;
43620;SDS011;29213;50.770;7.298;2023-04-30T14:44:05;0.90;;;0.50;;
43620;SDS011;29213;50.770;7.298;2023-04-30T14:46:30;0.70;;;0.40;;
43620;SDS011;29213;50.770;7.298;2023-04-30T14:48:57;1.27;;;0.70;;
43620;SDS011;29213;50.770;7.298;2023-04-30T14:51:23;1.70;;;0.60;;
43620;SDS011;29213;50.770;7.298;2023-04-30T14:53:49;0.90;;;0.50;;
43620;SDS011;29213;50.770;7.298;2023-04-30T14:56:14;1.30;;;0.50;;
43620;SDS011;29213;50.770;7.298;2023-04-30T14:58:40;0.98;;;0.50;;
43620;SDS011;29213;50.770;7.298;2023-04-30T15:01:05;1.20;;;0.50;;
43620;SDS011;29213;50.770;7.298;2023-04-30T15:03:31;1.25;;;0.60;;
43620;SDS011;29213;50.770;7.298;2023-04-30T15:05:56;0.85;;;0.50;;
43620;SDS011;29213;50.770;7.298;2023-04-30T15:08:23;1.67;;;0.73;;
43620;SDS011;29213;50.770;7.298;2023-04-30T15:10:48;2.58;;;0.88;;
43620;SDS011;29213;50.770;7.298;2023-04-30T15:13:14;1.50;;;0.73;;
43620;SDS011;29213;50.770;7.298;2023-04-30T15:15:40;2.40;;;1.00;;
43620;SDS011;29213;50.770;7.298;2023-04-30T15:18:06;1.80;;;1.00;;
43620;SDS011;29213;50.770;7.298;2023-04-30T15:20:31;1.98;;;0.90;;
43620;SDS011;29213;50.770;7.298;2023-04-30T15:22:57;1.70;;;0.82;;
43620;SDS011;29213;50.770;7.298;2023-04-30T15:25:22;1.83;;;0.80;;
43620;SDS011;29213;50.770;7.298;2023-04-30T15:27:51;1.50;;;0.68;;
43620;SDS011;29213;50.770;7.298;2023-04-30T15:30:17;1.38;;;0.70;;
43620;SDS011;29213;50.770;7.298;2023-04-30T15:32:42;0.98;;;0.60;;
43620;SDS011;29213;50.770;7.298;2023-04-30T15:35:08;0.60;;;0.60;;
43620;SDS011;29213;50.770;7.298;2023-04-30T15:37:34;1.40;;;0.70;;
43620;SDS011;29213;50.770;7.298;2023-04-30T15:40:00;1.15;;;0.63;;
43620;SDS011;29213;50.770;7.298;2023-04-30T15:42:25;3.17;;;0.60;;
43620;SDS011;29213;50.770;7.298;2023-04-30T15:44:51;1.15;;;0.60;;
43620;SDS011;29213;50.770;7.298;2023-04-30T15:47:16;0.90;;;0.60;;
43620;SDS011;29213;50.770;7.298;2023-04-30T15:49:42;1.50;;;0.80;;
43620;SDS011;29213;50.770;7.298;2023-04-30T15:52:07;1.50;;;0.70;;
43620;SDS011;29213;50.770;7.298;2023-04-30T15:54:34;1.55;;;0.50;;
43620;SDS011;29213;50.770;7.298;2023-04-30T15:56:59;2.63;;;0.73;;
43620;SDS011;29213;50.770;7.298;2023-04-30T15:59:25;1.35;;;0.70;;
43620;SDS011;29213;50.770;7.298;2023-04-30T16:01:51;2.42;;;0.90;;
43620;SDS011;29213;50.770;7.298;2023-04-30T16:04:17;2.85;;;1.52;;
43620;SDS011;29213;50.770;7.298;2023-04-30T16:06:42;3.53;;;1.50;;
43620;SDS011;29213;50.770;7.298;2023-04-30T16:09:08;3.45;;;1.60;;
43620;SDS011;29213;50.770;7.298;2023-04-30T16:11:34;3.10;;;1.10;;
43620;SDS011;29213;50.770;7.298;2023-04-30T16:14:00;1.40;;;0.80;;
43620;SDS011;29213;50.770;7.298;2023-04-30T16:16:25;1.67;;;0.90;;
43620;SDS011;29213;50.770;7.298;2023-04-30T16:18:51;1.58;;;0.80;;
43620;SDS011;29213;50.770;7.298;2023-04-30T16:21:17;1.80;;;0.90;;
43620;SDS011;29213;50.770;7.298;2023-04-30T16:23:42;2.17;;;1.00;;
43620;SDS011;29213;50.770;7.298;2023-04-30T16:26:10;2.30;;;0.90;;
43620;SDS011;29213;50.770;7.298;2023-04-30T16:28:35;1.83;;;0.70;;
43620;SDS011;29213;50.770;7.298;2023-04-30T16:31:00;1.13;;;0.60;;
43620;SDS011;29213;50.770;7.298;2023-04-30T16:33:26;0.90;;;0.50;;
43620;SDS011;29213;50.770;7.298;2023-04-30T16:35:51;1.63;;;0.70;;
43620;SDS011;29213;50.770;7.298;2023-04-30T16:38:18;1.30;;;0.65;;
43620;SDS011;29213;50.770;7.298;2023-04-30T16:40:44;2.85;;;0.90;;
43620;SDS011;29213;50.770;7.298;2023-04-30T16:43:10;1.55;;;0.82;;
43620;SDS011;29213;50.770;7.298;2023-04-30T16:45:36;2.10;;;0.80;;
43620;SDS011;29213;50.770;7.298;2023-04-30T16:48:02;2.05;;;0.60;;
43620;SDS011;29213;50.770;7.298;2023-04-30T16:50:27;2.22;;;0.73;;
43620;SDS011;29213;50.770;7.298;2023-04-30T16:52:53;2.25;;;0.90;;
43620;SDS011;29213;50.770;7.298;2023-04-30T16:55:18;2.72;;;1.23;;
43620;SDS011;29213;50.770;7.298;2023-04-30T16:57:44;2.80;;;1.20;;
43620;SDS011;29213;50.770;7.298;2023-04-30T17:00:10;2.60;;;1.20;;
43620;SDS011;29213;50.770;7.298;2023-04-30T17:02:36;2.10;;;1.10;;
43620;SDS011;29213;50.770;7.298;2023-04-30T17:05:02;2.22;;;1.00;;
43620;SDS011;29213;50.770;7.298;2023-04-30T17:07:28;2.33;;;1.00;;
43620;SDS011;29213;50.770;7.298;2023-04-30T17:09:53;1.88;;;1.00;;
43620;SDS011;29213;50.770;7.298;2023-04-30T17:12:19;2.65;;;0.95;;
43620;SDS011;29213;50.770;7.298;2023-04-30T17:14:44;2.00;;;1.05;;
43620;SDS011;29213;50.770;7.298;2023-04-30T17:17:10;2.28;;;1.10;;
43620;SDS011;29213;50.770;7.298;2023-04-30T17:19:35;2.03;;;1.10;;
43620;SDS011;29213;50.770;7.298;2023-04-30T17:22:01;2.55;;;1.20;;
43620;SDS011;29213;50.770;7.298;2023-04-30T17:24:26;2.20;;;1.00;;
43620;SDS011;29213;50.770;7.298;2023-04-30T17:26:52;1.75;;;0.95;;
43620;SDS011;29213;50.770;7.298;2023-04-30T17:29:17;2.13;;;0.90;;
43620;SDS011;29213;50.770;7.298;2023-04-30T17:31:45;1.63;;;0.80;;
43620;SDS011;29213;50.770;7.298;2023-04-30T17:34:10;1.98;;;0.80;;
43620;SDS011;29213;50.770;7.298;2023-04-30T17:36:36;1.73;;;0.70;;
43620;SDS011;29213;50.770;7.298;2023-04-30T17:39:02;1.33;;;0.80;;
43620;SDS011;29213;50.770;7.298;2023-04-30T17:41:29;1.35;;;0.70;;
43620;SDS011;29213;50.770;7.298;2023-04-30T17:43:55;1.45;;;0.80;;
43620;SDS011;29213;50.770;7.298;2023-04-30T17:46:21;1.63;;;0.82;;
43620;SDS011;29213;50.770;7.298;2023-04-30T17:48:47;2.53;;;0.80;;
43620;SDS011;29213;50.770;7.298;2023-04-30T17:51:12;1.42;;;0.75;;
43620;SDS011;29213;50.770;7.298;2023-04-30T17:53:38;3.42;;;0.98;;
43620;SDS011;29213;50.770;7.298;2023-04-30T17:56:04;3.15;;;1.15;;
43620;SDS011;29213;50.770;7.298;2023-04-30T17:58:30;1.90;;;0.90;;
43620;SDS011;29213;50.770;7.298;2023-04-30T18:00:56;1.30;;;0.82;;
43620;SDS011;29213;50.770;7.298;2023-04-30T18:03:23;2.58;;;1.13;;
43620;SDS011;29213;50.770;7.298;2023-04-30T18:05:48;2.50;;;1.27;;
43620;SDS011;29213;50.770;7.298;2023-04-30T18:08:14;2.83;;;1.50;;
43620;SDS011;29213;50.770;7.298;2023-04-30T18:10:39;2.88;;;1.40;;
43620;SDS011;29213;50.770;7.298;2023-04-30T18:13:05;2.30;;;1.20;;
43620;SDS011;29213;50.770;7.298;2023-04-30T18:15:31;2.55;;;1.30;;
43620;SDS011;29213;50.770;7.298;2023-04-30T18:17:57;2.85;;;1.40;;
43620;SDS011;29213;50.770;7.298;2023-04-30T18:20:23;3.67;;;1.58;;
43620;SDS011;29213;50.770;7.298;2023-04-30T18:22:49;2.95;;;1.48;;
43620;SDS011;29213;50.770;7.298;2023-04-30T18:25:14;3.08;;;1.50;;
43620;SDS011;29213;50.770;7.298;2023-04-30T18:27:41;4.70;;;1.67;;
43620;SDS011;29213;50.770;7.298;2023-04-30T18:30:07;4.57;;;1.70;;
43620;SDS011;29213;50.770;7.298;2023-04-30T18:32:33;3.05;;;1.50;;
43620;SDS011;29213;50.770;7.298;2023-04-30T18:35:00;3.20;;;1.52;;
43620;SDS011;29213;50.770;7.298;2023-04-30T18:37:26;3.50;;;2.03;;
43620;SDS011;29213;50.770;7.298;2023-04-30T18:39:52;2.88;;;1.60;;
43620;SDS011;29213;50.770;7.298;2023-04-30T18:42:18;4.40;;;2.47;;
43620;SDS011;29213;50.770;7.298;2023-04-30T18:44:44;6.68;;;2.80;;
43620;SDS011;29213;50.770;7.298;2023-04-30T18:47:09;4.88;;;3.13;;
43620;SDS011;29213;50.770;7.298;2023-04-30T18:49:36;4.30;;;2.40;;
43620;SDS011;29213;50.770;7.298;2023-04-30T18:52:02;3.60;;;1.90;;
43620;SDS011;29213;50.770;7.298;2023-04-30T18:54:28;4.00;;;1.55;;
43620;SDS011;29213;50.770;7.298;2023-04-30T18:56:54;2.63;;;1.38;;
43620;SDS011;29213;50.770;7.298;2023-04-30T18:59:19;2.45;;;1.50;;
43620;SDS011;29213;50.770;7.298;2023-04-30T19:01:46;3.47;;;2.00;;
43620;SDS011;29213;50.770;7.298;2023-04-30T19:04:13;3.63;;;2.30;;
43620;SDS011;29213;50.770;7.298;2023-04-30T19:06:40;4.78;;;2.60;;
43620;SDS011;29213;50.770;7.298;2023-04-30T19:09:06;4.32;;;2.58;;
43620;SDS011;29213;50.770;7.298;2023-04-30T19:11:33;4.18;;;2.90;;
43620;SDS011;29213;50.770;7.298;2023-04-30T19:14:00;3.95;;;2.85;;
43620;SDS011;29213;50.770;7.298;2023-04-30T19:16:25;5.78;;;2.60;;
43620;SDS011;29213;50.770;7.298;2023-04-30T19:18:51;3.90;;;2.53;;
43620;SDS011;29213;50.770;7.298;2023-04-30T19:21:16;4.43;;;3.03;;
43620;SDS011;29213;50.770;7.298;2023-04-30T19:23:43;4.05;;;3.00;;
43620;SDS011;29213;50.770;7.298;2023-04-30T19:26:08;4.07;;;2.60;;
43620;SDS011;29213;50.770;7.298;2023-04-30T19:28:34;4.65;;;2.60;;
43620;SDS011;29213;50.770;7.298;2023-04-30T19:30:59;3.97;;;2.47;;
43620;SDS011;29213;50.770;7.298;2023-04-30T19:33:25;3.30;;;1.90;;
43620;SDS011;29213;50.770;7.298;2023-04-30T19:35:51;3.53;;;2.15;;
43620;SDS011;29213;50.770;7.298;2023-04-30T19:38:18;3.92;;;2.65;;
43620;SDS011;29213;50.770;7.298;2023-04-30T19:40:48;4.85;;;2.80;;
43620;SDS011;29213;50.770;7.298;2023-04-30T19:43:20;3.60;;;2.50;;
43620;SDS011;29213;50.770;7.298;2023-04-30T19:45:49;4.63;;;2.80;;
43620;SDS011;29213;50.770;7.298;2023-04-30T19:48:19;4.07;;;2.60;;
43620;SDS011;29213;50.770;7.298;2023-04-30T19:50:46;4.82;;;3.15;;
43620;SDS011;29213;50.770;7.298;2023-04-30T19:53:13;9.45;;;3.45;;
43620;SDS011;29213;50.770;7.298;2023-04-30T19:55:40;4.95;;;3.38;;
43620;SDS011;29213;50.770;7.298;2023-04-30T19:58:06;6.15;;;3.40;;
43620;SDS011;29213;50.770;7.298;2023-04-30T20:00:35;5.22;;;3.00;;
43620;SDS011;29213;50.770;7.298;2023-04-30T20:03:02;4.68;;;3.20;;
43620;SDS011;29213;50.770;7.298;2023-04-30T20:05:32;6.65;;;4.70;;
43620;SDS011;29213;50.770;7.298;2023-04-30T20:08:00;6.20;;;4.30;;
43620;SDS011;29213;50.770;7.298;2023-04-30T20:10:25;6.75;;;4.90;;
43620;SDS011;29213;50.770;7.298;2023-04-30T20:12:51;6.40;;;4.45;;
43620;SDS011;29213;50.770;7.298;2023-04-30T20:15:18;5.28;;;3.78;;
43620;SDS011;29213;50.770;7.298;2023-04-30T20:17:44;4.78;;;3.50;;
43620;SDS011;29213;50.770;7.298;2023-04-30T20:20:10;5.88;;;3.85;;
43620;SDS011;29213;50.770;7.298;2023-04-30T20:22:37;5.85;;;4.20;;
43620;SDS011;29213;50.770;7.298;2023-04-30T20:25:03;5.47;;;3.97;;
43620;SDS011;29213;50.770;7.298;2023-04-30T20:27:28;7.13;;;4.32;;
43620;SDS011;29213;50.770;7.298;2023-04-30T20:29:54;5.55;;;3.95;;
43620;SDS011;29213;50.770;7.298;2023-04-30T20:32:19;5.35;;;4.15;;
43620;SDS011;29213;50.770;7.298;2023-04-30T20:34:45;5.88;;;4.05;;
43620;SDS011;29213;50.770;7.298;2023-04-30T20:37:10;5.88;;;4.00;;
43620;SDS011;29213;50.770;7.298;2023-04-30T20:39:39;9.52;;;4.05;;
43620;SDS011;29213;50.770;7.298;2023-04-30T20:42:05;6.50;;;4.00;;
43620;SDS011;29213;50.770;7.298;2023-04-30T20:44:30;6.55;;;4.07;;
43620;SDS011;29213;50.770;7.298;2023-04-30T20:46:57;7.25;;;4.78;;
43620;SDS011;29213;50.770;7.298;2023-04-30T20:49:23;6.68;;;4.60;;
43620;SDS011;29213;50.770;7.298;2023-04-30T20:51:51;9.18;;;4.78;;
43620;SDS011;29213;50.770;7.298;2023-04-30T20:54:17;6.47;;;4.40;;
43620;SDS011;29213;50.770;7.298;2023-04-30T20:56:42;5.80;;;4.30;;
43620;SDS011;29213;50.770;7.298;2023-04-30T20:59:09;8.30;;;4.50;;
43620;SDS011;29213;50.770;7.298;2023-04-30T21:01:34;8.48;;;5.40;;
43620;SDS011;29213;50.770;7.298;2023-04-30T21:04:00;7.22;;;5.80;;
43620;SDS011;29213;50.770;7.298;2023-04-30T21:06:26;8.80;;;5.45;;
43620;SDS011;29213;50.770;7.298;2023-04-30T21:08:52;7.53;;;5.53;;
43620;SDS011;29213;50.770;7.298;2023-04-30T21:11:17;7.45;;;5.70;;
43620;SDS011;29213;50.770;7.298;2023-04-30T21:13:44;6.97;;;5.50;;
43620;SDS011;29213;50.770;7.298;2023-04-30T21:16:10;7.93;;;6.35;;
43620;SDS011;29213;50.770;7.298;2023-04-30T21:18:35;13.85;;;9.50;;
43620;SDS011;29213;50.770;7.298;2023-04-30T21:21:01;15.38;;;10.40;;
43620;SDS011;29213;50.770;7.298;2023-04-30T21:23:28;13.82;;;9.35;;
43620;SDS011;29213;50.770;7.298;2023-04-30T21:25:54;11.80;;;8.48;;
43620;SDS011;29213;50.770;7.298;2023-04-30T21:28:19;10.75;;;7.93;;
43620;SDS011;29213;50.770;7.298;2023-04-30T21:30:45;9.43;;;6.88;;
43620;SDS011;29213;50.770;7.298;2023-04-30T21:33:10;9.73;;;6.43;;
43620;SDS011;29213;50.770;7.298;2023-04-30T21:35:36;9.30;;;6.28;;
43620;SDS011;29213;50.770;7.298;2023-04-30T21:38:01;8.35;;;5.78;;
43620;SDS011;29213;50.770;7.298;2023-04-30T21:40:29;11.20;;;6.60;;
43620;SDS011;29213;50.770;7.298;2023-04-30T21:42:56;9.20;;;7.25;;